Kazan << — UUPD — position and weather

sailwx.info

Track history (hours):
 
Tides and Currents Weather Stations Pressure Air Temp Water Temp Dewpoint Dewpoint Depression Visibility Wind Speed Wind Dir Waves Ship Positions

Kazan <<

Last reported at 2017-Dec-15 05:35 UTC. Time now 2017-Dec-18 14:58 UTC.
Position N 44°23' E 028°02'.

Length 210 m; draft 0.2 m.

Type: Ship. MMSI: 272041800.

Date/timePositionNaut miles runAvg speedWind from/ knotsBaromVisibWave heightAir tempDewpointWater temp
2017-Dec-15 05:35N 44°23' E 028°02'198 4.7
2017-Dec-13 11:46N 43°50' E 023°31'2 6.9
2017-Dec-13 11:29N 43°51' E 023°28'3 6.6
2017-Dec-13 11:00N 43°51' E 023°24'3 6.6
2017-Dec-13 10:30N 43°51' E 023°20'3 6.6
2017-Dec-13 10:00N 43°50' E 023°15'3 6.6
2017-Dec-13 09:30N 43°49' E 023°11'3 6.8
2017-Dec-13 09:00N 43°48' E 023°06'3 6.9
2017-Dec-13 08:30N 43°48' E 023°01'3 6.6
2017-Dec-13 08:00N 43°49' E 022°57'3 6.7
2017-Dec-13 07:30N 43°50' E 022°53'3 6.3
2017-Dec-13 07:00N 43°53' E 022°50'3 6.5
2017-Dec-13 06:30N 43°56' E 022°52'3 6.5
2017-Dec-13 06:00N 43°59' E 022°53'3 6.6
2017-Dec-13 05:30N 44°00' E 022°57'3 6.2
2017-Dec-13 05:00N 44°01' E 023°01'3 6.3
2017-Dec-13 04:30N 44°04' E 023°03'3 6.3
2017-Dec-13 04:00N 44°06' E 022°59'3 6.8
2017-Dec-13 03:30N 44°07' E 022°54'3 6.9
2017-Dec-13 03:00N 44°09' E 022°50'1 2.9
2017-Dec-13 02:30N 44°10' E 022°49'0 0.0
2017-Dec-13 01:59N 44°10' E 022°49'0 0.0
2017-Dec-13 01:28N 44°10' E 022°49'0 0.0
2017-Dec-13 00:57N 44°10' E 022°49'0 0.0
2017-Dec-13 00:28N 44°10' E 022°49'0 0.0
2017-Dec-12 23:58N 44°10' E 022°49'0 0.0
2017-Dec-12 23:28N 44°10' E 022°49'0 0.0
2017-Dec-12 22:58N 44°10' E 022°49'0 0.0
2017-Dec-12 22:30N 44°10' E 022°49'0 0.0
2017-Dec-12 21:56N 44°10' E 022°49'0 0.0
2017-Dec-12 21:29N 44°10' E 022°49'0 0.0
2017-Dec-12 20:58N 44°10' E 022°49'0 0.0
2017-Dec-12 20:28N 44°10' E 022°49'0 0.0
2017-Dec-12 20:00N 44°10' E 022°49'0 0.0
2017-Dec-12 19:29N 44°10' E 022°49'1 1.5
2017-Dec-12 19:00N 44°10' E 022°48'3 6.0
2017-Dec-12 18:30N 44°12' E 022°44'3 5.7
2017-Dec-12 18:01N 44°13' E 022°41'3 5.8
2017-Dec-12 17:31N 44°16' E 022°41'3 5.9
2017-Dec-12 17:00N 44°18' E 022°38'3 5.5
2017-Dec-12 16:31N 44°19' E 022°35'1 1.0
2017-Dec-12 16:01N 44°19' E 022°34'0 0.4
2017-Dec-12 15:31N 44°19' E 022°34'2 4.5
2017-Dec-12 15:01N 44°21' E 022°31'3 6.4
2017-Dec-12 14:30N 44°24' E 022°30'3 5.6
2017-Dec-12 14:00N 44°26' E 022°28'2 4.8
2017-Dec-12 13:30N 44°29' E 022°29'3 5.8
2017-Dec-12 13:00N 44°29' E 022°33'3 6.1
2017-Dec-12 12:30N 44°32' E 022°34'3 5.8
2017-Dec-12 12:00N 44°33' E 022°37'3 6.4
2017-Dec-12 11:30N 44°31' E 022°41'3 6.7
2017-Dec-12 11:00N 44°32' E 022°45'3 6.4
2017-Dec-12 10:31N 44°35' E 022°44'3 6.4
2017-Dec-12 10:01N 44°37' E 022°40'3 6.6
2017-Dec-12 09:30N 44°38' E 022°36'3 6.8
2017-Dec-12 09:01N 44°40' E 022°32'0 0.7
2017-Dec-12 08:31N 44°40' E 022°32'0 0.3
2017-Dec-12 08:01N 44°40' E 022°31'0 0.0
2017-Dec-12 07:31N 44°40' E 022°31'0 0.4
2017-Dec-12 07:01N 44°40' E 022°31'1 2.9
2017-Dec-12 06:31N 44°41' E 022°30'0 0.1
2017-Dec-12 06:00N 44°41' E 022°30'0 0.0
2017-Dec-12 05:31N 44°41' E 022°30'0 0.0
2017-Dec-12 05:01N 44°41' E 022°30'2 4.0
2017-Dec-12 04:30N 44°43' E 022°28'3 5.1
2017-Dec-12 04:00N 44°42' E 022°25'0 0.7
2017-Dec-12 03:30N 44°41' E 022°24'0 0.0
2017-Dec-12 02:57N 44°41' E 022°24'0 0.0
2017-Dec-12 02:23N 44°41' E 022°24'0 0.0
2017-Dec-12 01:59N 44°41' E 022°24'0 0.0
2017-Dec-12 01:21N 44°41' E 022°24'0 0.0
2017-Dec-12 01:00N 44°41' E 022°24'0 0.0
2017-Dec-12 00:27N 44°41' E 022°24'0 0.0
2017-Dec-11 23:59N 44°41' E 022°24'0 0.0
2017-Dec-11 23:26N 44°41' E 022°24'0 0.0
2017-Dec-11 22:49N 44°41' E 022°24'0 0.3
2017-Dec-11 22:25N 44°41' E 022°24'2 5.1
2017-Dec-11 21:59N 44°43' E 022°25'0 0.2
2017-Dec-11 21:30N 44°44' E 022°25'0 0.5
2017-Dec-11 20:56N 44°43' E 022°25'0 0.6
2017-Dec-11 20:29N 44°44' E 022°25'0 0.2
2017-Dec-11 19:56N 44°44' E 022°25'0 0.0
2017-Dec-11 19:30N 44°44' E 022°25'0 0.0
2017-Dec-11 18:01N 44°44' E 022°25'0 0.0
2017-Dec-11 17:55N 44°44' E 022°25'0 0.0
2017-Dec-11 17:25N 44°44' E 022°25'0 0.0
2017-Dec-11 16:58N 44°44' E 022°25'0 0.0
2017-Dec-11 16:25N 44°44' E 022°25'0 0.0
2017-Dec-11 15:57N 44°44' E 022°25'0 0.8
2017-Dec-11 15:30N 44°43' E 022°25'0 0.9
2017-Dec-11 15:00N 44°44' E 022°25'0 0.0
2017-Dec-11 14:29N 44°44' E 022°25'0 0.0
2017-Dec-11 13:59N 44°44' E 022°25'0 0.3
2017-Dec-11 13:30N 44°44' E 022°25'2 4.0
2017-Dec-11 13:01N 44°42' E 022°24'0 0.7
2017-Dec-11 12:30N 44°41' E 022°24'0 0.0
2017-Dec-11 11:59N 44°41' E 022°24'0 0.0
2017-Dec-11 11:29N 44°41' E 022°24'0 0.0
2017-Dec-11 11:00N 44°41' E 022°24'0 0.0
2017-Dec-11 10:30N 44°41' E 022°24'0 0.0
2017-Dec-11 09:54N 44°41' E 022°24'0 0.0
2017-Dec-11 09:29N 44°41' E 022°24'0 0.0
2017-Dec-11 08:55N 44°41' E 022°24'0 0.0
2017-Dec-11 08:27N 44°41' E 022°24'0 0.0
2017-Dec-11 07:57N 44°41' E 022°24'0 0.0
2017-Dec-11 07:30N 44°41' E 022°24'0 0.0
2017-Dec-11 06:57N 44°41' E 022°24'0 0.0
2017-Dec-11 06:30N 44°41' E 022°24'0 0.0
2017-Dec-11 05:59N 44°41' E 022°24'0 0.0
2017-Dec-11 05:31N 44°41' E 022°24'0 0.0
2017-Dec-11 04:57N 44°41' E 022°24'0 0.0
2017-Dec-11 04:29N 44°41' E 022°24'0 0.0
2017-Dec-11 03:59N 44°41' E 022°24'0 0.0
2017-Dec-11 03:21N 44°41' E 022°24'0 0.0
2017-Dec-11 02:56N 44°41' E 022°24'0 0.0
2017-Dec-11 02:29N 44°41' E 022°24'0 0.0
2017-Dec-11 01:55N 44°41' E 022°24'0 0.0
2017-Dec-11 01:29N 44°41' E 022°24'0 0.0
2017-Dec-11 01:00N 44°41' E 022°24'0 0.0
2017-Dec-11 00:30N 44°41' E 022°24'0 0.0
2017-Dec-10 23:59N 44°41' E 022°24'0 0.0
2017-Dec-10 23:30N 44°41' E 022°24'0 0.0
2017-Dec-10 23:00N 44°41' E 022°24'0 0.0
2017-Dec-10 22:30N 44°41' E 022°24'0 0.0
2017-Dec-10 22:00N 44°41' E 022°24'0 0.0
2017-Dec-10 21:18N 44°41' E 022°24'0 0.0
2017-Dec-10 21:00N 44°41' E 022°24'0 0.0
2017-Dec-10 20:30N 44°41' E 022°24'0 0.0
2017-Dec-10 20:00N 44°41' E 022°24'0 0.0
2017-Dec-10 19:26N 44°41' E 022°24'0 0.0
2017-Dec-10 18:59N 44°41' E 022°24'0 0.0
2017-Dec-10 18:29N 44°41' E 022°24'0 0.0
2017-Dec-10 17:59N 44°41' E 022°24'0 0.0
2017-Dec-10 17:23N 44°41' E 022°24'0 0.0
2017-Dec-10 16:57N 44°41' E 022°24'0 0.0
2017-Dec-10 16:29N 44°41' E 022°24'0 0.0
2017-Dec-10 15:59N 44°41' E 022°24'0 0.0
2017-Dec-10 15:30N 44°41' E 022°24'0 0.0
2017-Dec-10 15:00N 44°41' E 022°24'0 0.0
2017-Dec-10 14:30N 44°41' E 022°24'0 0.0
2017-Dec-10 14:00N 44°41' E 022°24'0 0.0
2017-Dec-10 13:26N 44°41' E 022°24'0 0.0
2017-Dec-10 12:59N 44°41' E 022°24'0 0.0
2017-Dec-10 12:30N 44°41' E 022°24'0 0.0
2017-Dec-10 11:54N 44°41' E 022°24'0 0.0
2017-Dec-10 11:30N 44°41' E 022°24'0 0.5
2017-Dec-10 11:00N 44°41' E 022°24'3 5.1
2017-Dec-10 10:30N 44°40' E 022°21'8 5.6
2017-Dec-10 09:04N 44°34' E 022°14'0 5.9
2017-Dec-10 08:59N 44°33' E 022°14'3 5.8
2017-Dec-10 08:30N 44°31' E 022°12'3 5.5
2017-Dec-10 08:00N 44°28' E 022°10'3 5.6
2017-Dec-10 07:30N 44°29' E 022°06'3 5.6
2017-Dec-10 07:00N 44°31' E 022°04'1 1.5
2017-Dec-10 06:21N 44°32' E 022°03'0 0.0
2017-Dec-10 05:55N 44°32' E 022°03'0 0.0
2017-Dec-10 05:18N 44°32' E 022°03'0 0.0
2017-Dec-10 04:55N 44°32' E 022°03'0 0.0
2017-Dec-10 04:21N 44°32' E 022°03'0 0.0
2017-Dec-10 03:59N 44°32' E 022°03'0 0.0
2017-Dec-10 03:30N 44°32' E 022°03'0 0.0
2017-Dec-10 02:57N 44°32' E 022°03'0 0.0
2017-Dec-10 02:23N 44°32' E 022°03'0 0.0
2017-Dec-10 01:58N 44°32' E 022°03'0 0.0
2017-Dec-10 01:24N 44°32' E 022°03'0 0.0
2017-Dec-10 00:58N 44°32' E 022°03'0 0.0
2017-Dec-10 00:25N 44°32' E 022°03'0 0.0
2017-Dec-09 23:58N 44°32' E 022°03'0 0.0
2017-Dec-09 23:21N 44°32' E 022°03'0 0.0
2017-Dec-09 22:59N 44°32' E 022°03'0 0.0
2017-Dec-09 22:25N 44°32' E 022°03'0 0.0
2017-Dec-09 21:51N 44°32' E 022°03'0 0.2
2017-Dec-09 21:26N 44°32' E 022°04'0 0.2
2017-Dec-09 20:49N 44°32' E 022°04'0 0.0
2017-Dec-09 20:27N 44°32' E 022°04'0 0.0
2017-Dec-09 19:50N 44°32' E 022°04'0 0.0
2017-Dec-09 19:29N 44°32' E 022°04'0 0.0
2017-Dec-09 18:56N 44°32' E 022°04'0 0.4
2017-Dec-09 18:20N 44°32' E 022°03'0 0.0
2017-Dec-09 17:58N 44°32' E 022°03'0 0.0
2017-Dec-09 17:24N 44°32' E 022°03'0 0.0
2017-Dec-09 16:48N 44°32' E 022°03'0 0.0
2017-Dec-09 16:26N 44°32' E 022°03'0 0.0
2017-Dec-09 15:57N 44°32' E 022°03'0 0.1
2017-Dec-09 15:21N 44°32' E 022°03'0 0.1
2017-Dec-09 14:58N 44°32' E 022°03'0 0.0
2017-Dec-09 14:31N 44°32' E 022°03'0 0.0
2017-Dec-09 14:01N 44°32' E 022°03'2 4.2
2017-Dec-09 13:31N 44°34' E 022°02'4 7.4
2017-Dec-09 13:00N 44°37' E 021°60'15 7.4
2017-Dec-09 11:00N 44°41' E 021°40'4 7.1
2017-Dec-09 10:23N 44°45' E 021°36'4 4.4
2017-Dec-09 09:27N 44°46' E 021°31'0 0.1
2017-Dec-09 07:32N 44°46' E 021°31'0 0.0
2017-Dec-09 07:31N 44°46' E 021°31'11 1.5
2017-Dec-09 00:08N 44°48' E 021°16'1 7.7
2017-Dec-09 00:00N 44°47' E 021°14'4 8.0
2017-Dec-08 23:31N 44°45' E 021°10'4 7.9
2017-Dec-08 23:01N 44°43' E 021°05'4 7.8
2017-Dec-08 22:31N 44°43' E 020°59'1 2.1
2017-Dec-08 22:01N 44°42' E 020°58'0 0.0
2017-Dec-08 21:31N 44°42' E 020°58'0 0.0
2017-Dec-08 21:01N 44°42' E 020°58'0 0.0
2017-Dec-08 20:31N 44°42' E 020°58'0 0.0
2017-Dec-08 20:01N 44°42' E 020°58'1 1.5
2017-Dec-08 19:31N 44°42' E 020°57'0 0.0
2017-Dec-08 19:01N 44°42' E 020°57'0 0.0
2017-Dec-08 18:31N 44°42' E 020°57'0 0.0
2017-Dec-08 18:01N 44°42' E 020°57'0 0.1
2017-Dec-08 17:31N 44°42' E 020°57'0 0.4
2017-Dec-08 17:01N 44°42' E 020°57'2 1.1
2017-Dec-08 15:00N 44°40' E 020°55'0 0.0
2017-Dec-08 14:28N 44°40' E 020°55'0 0.0
2017-Dec-08 14:00N 44°40' E 020°55'0 0.0
2017-Dec-08 13:18N 44°40' E 020°55'0 0.0
2017-Dec-08 13:00N 44°40' E 020°55'0 0.0
2017-Dec-08 12:26N 44°40' E 020°55'0 0.1
2017-Dec-08 11:51N 44°40' E 020°55'0 0.3
2017-Dec-08 11:29N 44°40' E 020°55'0 0.0
2017-Dec-08 10:58N 44°40' E 020°55'0 0.0
2017-Dec-08 10:30N 44°40' E 020°55'0 0.0
2017-Dec-08 09:58N 44°40' E 020°55'0 0.1
2017-Dec-08 09:25N 44°40' E 020°55'0 0.2
2017-Dec-08 09:00N 44°40' E 020°55'0 0.3
2017-Dec-08 08:29N 44°40' E 020°55'0 0.2
2017-Dec-08 07:46N 44°40' E 020°55'0 0.3
2017-Dec-08 07:31N 44°40' E 020°55'2 4.6
2017-Dec-08 07:01N 44°42' E 020°58'0 0.3
2017-Dec-08 06:31N 44°42' E 020°58'0 0.2
2017-Dec-08 05:59N 44°42' E 020°58'0 0.4
2017-Dec-08 05:30N 44°42' E 020°58'2 4.1
2017-Dec-08 05:01N 44°43' E 021°01'2 4.3
2017-Dec-08 04:30N 44°43' E 021°04'2 4.3
2017-Dec-08 04:00N 44°44' E 021°07'3 4.2
2017-Dec-08 03:20N 44°45' E 021°10'1 3.9
2017-Dec-08 02:59N 44°46' E 021°11'2 4.4
2017-Dec-08 02:28N 44°47' E 021°14'9 3.7
2017-Dec-07 23:55N 44°47' E 021°27'2 4.3
2017-Dec-07 23:30N 44°46' E 021°30'1 1.2
2017-Dec-07 22:58N 44°46' E 021°31'0 0.6
2017-Dec-07 22:30N 44°46' E 021°31'0 0.0
2017-Dec-07 22:00N 44°46' E 021°31'0 0.0
2017-Dec-07 21:29N 44°46' E 021°31'0 0.0
2017-Dec-07 20:57N 44°46' E 021°31'0 0.0
2017-Dec-07 20:29N 44°46' E 021°31'0 0.0
2017-Dec-07 19:59N 44°46' E 021°31'0 0.6
2017-Dec-07 19:27N 44°46' E 021°31'2 3.8
2017-Dec-07 18:53N 44°46' E 021°34'1 3.7
2017-Dec-07 18:29N 44°45' E 021°36'2 4.3
2017-Dec-07 17:55N 44°43' E 021°38'2 3.9
2017-Dec-07 17:30N 44°42' E 021°39'3 4.1
2017-Dec-07 16:47N 44°40' E 021°42'23 2.4
2017-Dec-07 07:22N 44°29' E 022°11'2 4.8
2017-Dec-07 07:01N 44°31' E 022°12'3 5.0
2017-Dec-07 06:27N 44°34' E 022°14'5 4.5
2017-Dec-07 05:19N 44°38' E 022°17'2 4.9
2017-Dec-07 05:00N 44°40' E 022°18'3 5.2
2017-Dec-07 04:30N 44°40' E 022°22'2 4.3
2017-Dec-07 04:00N 44°42' E 022°24'0 0.1
2017-Dec-07 03:30N 44°42' E 022°24'0 0.0
2017-Dec-07 03:00N 44°42' E 022°24'0 0.0
2017-Dec-07 02:30N 44°42' E 022°24'0 0.0
2017-Dec-07 02:00N 44°42' E 022°24'0 0.0
2017-Dec-07 01:30N 44°42' E 022°24'0 0.0
2017-Dec-07 01:00N 44°42' E 022°24'0 0.0
2017-Dec-07 00:24N 44°42' E 022°24'0 0.0
2017-Dec-07 00:00N 44°42' E 022°24'0 0.0
2017-Dec-06 23:27N 44°42' E 022°24'0 0.0
2017-Dec-06 23:00N 44°42' E 022°24'0 0.0
2017-Dec-06 22:30N 44°42' E 022°24'0 0.0
2017-Dec-06 21:57N 44°42' E 022°24'0 0.0
2017-Dec-06 21:12N 44°42' E 022°24'0 0.0
2017-Dec-06 20:57N 44°42' E 022°24'  
Track history (hours):
 
Tides and Currents Weather Stations Pressure Air Temp Water Temp Dewpoint Dewpoint Depression Visibility Wind Speed Wind Dir Waves Ship Positions

Kazan <<

Last reported at 2017-Dec-15 05:35 UTC. Time now 2017-Dec-18 14:58 UTC.
Position N 44°23' E 028°02'.

Length 210 m; draft 0.2 m.

Type: Ship. MMSI: 272041800.

Date/timePositionNaut miles runAvg speedWind from/ knotsBaromVisibWave heightAir tempDewpointWater temp
2017-Dec-15 05:35N 44°23' E 028°02'198 4.7
2017-Dec-13 11:46N 43°50' E 023°31'2 6.9
2017-Dec-13 11:29N 43°51' E 023°28'3 6.6
2017-Dec-13 11:00N 43°51' E 023°24'3 6.6
2017-Dec-13 10:30N 43°51' E 023°20'3 6.6
2017-Dec-13 10:00N 43°50' E 023°15'3 6.6
2017-Dec-13 09:30N 43°49' E 023°11'3 6.8
2017-Dec-13 09:00N 43°48' E 023°06'3 6.9
2017-Dec-13 08:30N 43°48' E 023°01'3 6.6
2017-Dec-13 08:00N 43°49' E 022°57'3 6.7
2017-Dec-13 07:30N 43°50' E 022°53'3 6.3
2017-Dec-13 07:00N 43°53' E 022°50'3 6.5
2017-Dec-13 06:30N 43°56' E 022°52'3 6.5
2017-Dec-13 06:00N 43°59' E 022°53'3 6.6
2017-Dec-13 05:30N 44°00' E 022°57'3 6.2
2017-Dec-13 05:00N 44°01' E 023°01'3 6.3
2017-Dec-13 04:30N 44°04' E 023°03'3 6.3
2017-Dec-13 04:00N 44°06' E 022°59'3 6.8
2017-Dec-13 03:30N 44°07' E 022°54'3 6.9
2017-Dec-13 03:00N 44°09' E 022°50'1 2.9
2017-Dec-13 02:30N 44°10' E 022°49'0 0.0
2017-Dec-13 01:59N 44°10' E 022°49'0 0.0
2017-Dec-13 01:28N 44°10' E 022°49'0 0.0
2017-Dec-13 00:57N 44°10' E 022°49'0 0.0
2017-Dec-13 00:28N 44°10' E 022°49'0 0.0
2017-Dec-12 23:58N 44°10' E 022°49'0 0.0
2017-Dec-12 23:28N 44°10' E 022°49'0 0.0
2017-Dec-12 22:58N 44°10' E 022°49'0 0.0
2017-Dec-12 22:30N 44°10' E 022°49'0 0.0
2017-Dec-12 21:56N 44°10' E 022°49'0 0.0
2017-Dec-12 21:29N 44°10' E 022°49'0 0.0
2017-Dec-12 20:58N 44°10' E 022°49'0 0.0
2017-Dec-12 20:28N 44°10' E 022°49'0 0.0
2017-Dec-12 20:00N 44°10' E 022°49'0 0.0
2017-Dec-12 19:29N 44°10' E 022°49'1 1.5
2017-Dec-12 19:00N 44°10' E 022°48'3 6.0
2017-Dec-12 18:30N 44°12' E 022°44'3 5.7
2017-Dec-12 18:01N 44°13' E 022°41'3 5.8
2017-Dec-12 17:31N 44°16' E 022°41'3 5.9
2017-Dec-12 17:00N 44°18' E 022°38'3 5.5
2017-Dec-12 16:31N 44°19' E 022°35'1 1.0
2017-Dec-12 16:01N 44°19' E 022°34'0 0.4
2017-Dec-12 15:31N 44°19' E 022°34'2 4.5
2017-Dec-12 15:01N 44°21' E 022°31'3 6.4
2017-Dec-12 14:30N 44°24' E 022°30'3 5.6
2017-Dec-12 14:00N 44°26' E 022°28'2 4.8
2017-Dec-12 13:30N 44°29' E 022°29'3 5.8
2017-Dec-12 13:00N 44°29' E 022°33'3 6.1
2017-Dec-12 12:30N 44°32' E 022°34'3 5.8
2017-Dec-12 12:00N 44°33' E 022°37'3 6.4
2017-Dec-12 11:30N 44°31' E 022°41'3 6.7
2017-Dec-12 11:00N 44°32' E 022°45'3 6.4
2017-Dec-12 10:31N 44°35' E 022°44'3 6.4
2017-Dec-12 10:01N 44°37' E 022°40'3 6.6
2017-Dec-12 09:30N 44°38' E 022°36'3 6.8
2017-Dec-12 09:01N 44°40' E 022°32'0 0.7
2017-Dec-12 08:31N 44°40' E 022°32'0 0.3
2017-Dec-12 08:01N 44°40' E 022°31'0 0.0
2017-Dec-12 07:31N 44°40' E 022°31'0 0.4
2017-Dec-12 07:01N 44°40' E 022°31'1 2.9
2017-Dec-12 06:31N 44°41' E 022°30'0 0.1
2017-Dec-12 06:00N 44°41' E 022°30'0 0.0
2017-Dec-12 05:31N 44°41' E 022°30'0 0.0
2017-Dec-12 05:01N 44°41' E 022°30'2 4.0
2017-Dec-12 04:30N 44°43' E 022°28'3 5.1
2017-Dec-12 04:00N 44°42' E 022°25'0 0.7
2017-Dec-12 03:30N 44°41' E 022°24'0 0.0
2017-Dec-12 02:57N 44°41' E 022°24'0 0.0
2017-Dec-12 02:23N 44°41' E 022°24'0 0.0
2017-Dec-12 01:59N 44°41' E 022°24'0 0.0
2017-Dec-12 01:21N 44°41' E 022°24'0 0.0
2017-Dec-12 01:00N 44°41' E 022°24'0 0.0
2017-Dec-12 00:27N 44°41' E 022°24'0 0.0
2017-Dec-11 23:59N 44°41' E 022°24'0 0.0
2017-Dec-11 23:26N 44°41' E 022°24'0 0.0
2017-Dec-11 22:49N 44°41' E 022°24'0 0.3
2017-Dec-11 22:25N 44°41' E 022°24'2 5.1
2017-Dec-11 21:59N 44°43' E 022°25'0 0.2
2017-Dec-11 21:30N 44°44' E 022°25'0 0.5
2017-Dec-11 20:56N 44°43' E 022°25'0 0.6
2017-Dec-11 20:29N 44°44' E 022°25'0 0.2
2017-Dec-11 19:56N 44°44' E 022°25'0 0.0
2017-Dec-11 19:30N 44°44' E 022°25'0 0.0
2017-Dec-11 18:01N 44°44' E 022°25'0 0.0
2017-Dec-11 17:55N 44°44' E 022°25'0 0.0
2017-Dec-11 17:25N 44°44' E 022°25'0 0.0
2017-Dec-11 16:58N 44°44' E 022°25'0 0.0
2017-Dec-11 16:25N 44°44' E 022°25'0 0.0
2017-Dec-11 15:57N 44°44' E 022°25'0 0.8
2017-Dec-11 15:30N 44°43' E 022°25'0 0.9
2017-Dec-11 15:00N 44°44' E 022°25'0 0.0
2017-Dec-11 14:29N 44°44' E 022°25'0 0.0
2017-Dec-11 13:59N 44°44' E 022°25'0 0.3
2017-Dec-11 13:30N 44°44' E 022°25'2 4.0
2017-Dec-11 13:01N 44°42' E 022°24'0 0.7
2017-Dec-11 12:30N 44°41' E 022°24'0 0.0
2017-Dec-11 11:59N 44°41' E 022°24'0 0.0
2017-Dec-11 11:29N 44°41' E 022°24'0 0.0
2017-Dec-11 11:00N 44°41' E 022°24'0 0.0
2017-Dec-11 10:30N 44°41' E 022°24'0 0.0
2017-Dec-11 09:54N 44°41' E 022°24'0 0.0
2017-Dec-11 09:29N 44°41' E 022°24'0 0.0
2017-Dec-11 08:55N 44°41' E 022°24'0 0.0
2017-Dec-11 08:27N 44°41' E 022°24'0 0.0
2017-Dec-11 07:57N 44°41' E 022°24'0 0.0
2017-Dec-11 07:30N 44°41' E 022°24'0 0.0
2017-Dec-11 06:57N 44°41' E 022°24'0 0.0
2017-Dec-11 06:30N 44°41' E 022°24'0 0.0
2017-Dec-11 05:59N 44°41' E 022°24'0 0.0
2017-Dec-11 05:31N 44°41' E 022°24'0 0.0
2017-Dec-11 04:57N 44°41' E 022°24'0 0.0
2017-Dec-11 04:29N 44°41' E 022°24'0 0.0
2017-Dec-11 03:59N 44°41' E 022°24'0 0.0
2017-Dec-11 03:21N 44°41' E 022°24'0 0.0
2017-Dec-11 02:56N 44°41' E 022°24'0 0.0
2017-Dec-11 02:29N 44°41' E 022°24'0 0.0
2017-Dec-11 01:55N 44°41' E 022°24'0 0.0
2017-Dec-11 01:29N 44°41' E 022°24'0 0.0
2017-Dec-11 01:00N 44°41' E 022°24'0 0.0
2017-Dec-11 00:30N 44°41' E 022°24'0 0.0
2017-Dec-10 23:59N 44°41' E 022°24'0 0.0
2017-Dec-10 23:30N 44°41' E 022°24'0 0.0
2017-Dec-10 23:00N 44°41' E 022°24'0 0.0
2017-Dec-10 22:30N 44°41' E 022°24'0 0.0
2017-Dec-10 22:00N 44°41' E 022°24'0 0.0
2017-Dec-10 21:18N 44°41' E 022°24'0 0.0
2017-Dec-10 21:00N 44°41' E 022°24'0 0.0
2017-Dec-10 20:30N 44°41' E 022°24'0 0.0
2017-Dec-10 20:00N 44°41' E 022°24'0 0.0
2017-Dec-10 19:26N 44°41' E 022°24'0 0.0
2017-Dec-10 18:59N 44°41' E 022°24'0 0.0
2017-Dec-10 18:29N 44°41' E 022°24'0 0.0
2017-Dec-10 17:59N 44°41' E 022°24'0 0.0
2017-Dec-10 17:23N 44°41' E 022°24'0 0.0
2017-Dec-10 16:57N 44°41' E 022°24'0 0.0
2017-Dec-10 16:29N 44°41' E 022°24'0 0.0
2017-Dec-10 15:59N 44°41' E 022°24'0 0.0
2017-Dec-10 15:30N 44°41' E 022°24'0 0.0
2017-Dec-10 15:00N 44°41' E 022°24'0 0.0
2017-Dec-10 14:30N 44°41' E 022°24'0 0.0
2017-Dec-10 14:00N 44°41' E 022°24'0 0.0
2017-Dec-10 13:26N 44°41' E 022°24'0 0.0
2017-Dec-10 12:59N 44°41' E 022°24'0 0.0
2017-Dec-10 12:30N 44°41' E 022°24'0 0.0
2017-Dec-10 11:54N 44°41' E 022°24'0 0.0
2017-Dec-10 11:30N 44°41' E 022°24'0 0.5
2017-Dec-10 11:00N 44°41' E 022°24'3 5.1
2017-Dec-10 10:30N 44°40' E 022°21'8 5.6
2017-Dec-10 09:04N 44°34' E 022°14'0 5.9
2017-Dec-10 08:59N 44°33' E 022°14'3 5.8
2017-Dec-10 08:30N 44°31' E 022°12'3 5.5
2017-Dec-10 08:00N 44°28' E 022°10'3 5.6
2017-Dec-10 07:30N 44°29' E 022°06'3 5.6
2017-Dec-10 07:00N 44°31' E 022°04'1 1.5
2017-Dec-10 06:21N 44°32' E 022°03'0 0.0
2017-Dec-10 05:55N 44°32' E 022°03'0 0.0
2017-Dec-10 05:18N 44°32' E 022°03'0 0.0
2017-Dec-10 04:55N 44°32' E 022°03'0 0.0
2017-Dec-10 04:21N 44°32' E 022°03'0 0.0
2017-Dec-10 03:59N 44°32' E 022°03'0 0.0
2017-Dec-10 03:30N 44°32' E 022°03'0 0.0
2017-Dec-10 02:57N 44°32' E 022°03'0 0.0
2017-Dec-10 02:23N 44°32' E 022°03'0 0.0
2017-Dec-10 01:58N 44°32' E 022°03'0 0.0
2017-Dec-10 01:24N 44°32' E 022°03'0 0.0
2017-Dec-10 00:58N 44°32' E 022°03'0 0.0
2017-Dec-10 00:25N 44°32' E 022°03'0 0.0
2017-Dec-09 23:58N 44°32' E 022°03'0 0.0
2017-Dec-09 23:21N 44°32' E 022°03'0 0.0
2017-Dec-09 22:59N 44°32' E 022°03'0 0.0
2017-Dec-09 22:25N 44°32' E 022°03'0 0.0
2017-Dec-09 21:51N 44°32' E 022°03'0 0.2
2017-Dec-09 21:26N 44°32' E 022°04'0 0.2
2017-Dec-09 20:49N 44°32' E 022°04'0 0.0
2017-Dec-09 20:27N 44°32' E 022°04'0 0.0
2017-Dec-09 19:50N 44°32' E 022°04'0 0.0
2017-Dec-09 19:29N 44°32' E 022°04'0 0.0
2017-Dec-09 18:56N 44°32' E 022°04'0 0.4
2017-Dec-09 18:20N 44°32' E 022°03'0 0.0
2017-Dec-09 17:58N 44°32' E 022°03'0 0.0
2017-Dec-09 17:24N 44°32' E 022°03'0 0.0
2017-Dec-09 16:48N 44°32' E 022°03'0 0.0
2017-Dec-09 16:26N 44°32' E 022°03'0 0.0
2017-Dec-09 15:57N 44°32' E 022°03'0 0.1
2017-Dec-09 15:21N 44°32' E 022°03'0 0.1
2017-Dec-09 14:58N 44°32' E 022°03'0 0.0
2017-Dec-09 14:31N 44°32' E 022°03'0 0.0
2017-Dec-09 14:01N 44°32' E 022°03'2 4.2
2017-Dec-09 13:31N 44°34' E 022°02'4 7.4
2017-Dec-09 13:00N 44°37' E 021°60'15 7.4
2017-Dec-09 11:00N 44°41' E 021°40'4 7.1
2017-Dec-09 10:23N 44°45' E 021°36'4 4.4
2017-Dec-09 09:27N 44°46' E 021°31'0 0.1
2017-Dec-09 07:32N 44°46' E 021°31'0 0.0
2017-Dec-09 07:31N 44°46' E 021°31'11 1.5
2017-Dec-09 00:08N 44°48' E 021°16'1 7.7
2017-Dec-09 00:00N 44°47' E 021°14'4 8.0
2017-Dec-08 23:31N 44°45' E 021°10'4 7.9
2017-Dec-08 23:01N 44°43' E 021°05'4 7.8
2017-Dec-08 22:31N 44°43' E 020°59'1 2.1
2017-Dec-08 22:01N 44°42' E 020°58'0 0.0
2017-Dec-08 21:31N 44°42' E 020°58'0 0.0
2017-Dec-08 21:01N 44°42' E 020°58'0 0.0
2017-Dec-08 20:31N 44°42' E 020°58'0 0.0
2017-Dec-08 20:01N 44°42' E 020°58'1 1.5
2017-Dec-08 19:31N 44°42' E 020°57'0 0.0
2017-Dec-08 19:01N 44°42' E 020°57'0 0.0
2017-Dec-08 18:31N 44°42' E 020°57'0 0.0
2017-Dec-08 18:01N 44°42' E 020°57'0 0.1
2017-Dec-08 17:31N 44°42' E 020°57'0 0.4
2017-Dec-08 17:01N 44°42' E 020°57'2 1.1
2017-Dec-08 15:00N 44°40' E 020°55'0 0.0
2017-Dec-08 14:28N 44°40' E 020°55'0 0.0
2017-Dec-08 14:00N 44°40' E 020°55'0 0.0
2017-Dec-08 13:18N 44°40' E 020°55'0 0.0
2017-Dec-08 13:00N 44°40' E 020°55'0 0.0
2017-Dec-08 12:26N 44°40' E 020°55'0 0.1
2017-Dec-08 11:51N 44°40' E 020°55'0 0.3
2017-Dec-08 11:29N 44°40' E 020°55'0 0.0
2017-Dec-08 10:58N 44°40' E 020°55'0 0.0
2017-Dec-08 10:30N 44°40' E 020°55'0 0.0
2017-Dec-08 09:58N 44°40' E 020°55'0 0.1
2017-Dec-08 09:25N 44°40' E 020°55'0 0.2
2017-Dec-08 09:00N 44°40' E 020°55'0 0.3
2017-Dec-08 08:29N 44°40' E 020°55'0 0.2
2017-Dec-08 07:46N 44°40' E 020°55'0 0.3
2017-Dec-08 07:31N 44°40' E 020°55'2 4.6
2017-Dec-08 07:01N 44°42' E 020°58'0 0.3
2017-Dec-08 06:31N 44°42' E 020°58'0 0.2
2017-Dec-08 05:59N 44°42' E 020°58'0 0.4
2017-Dec-08 05:30N 44°42' E 020°58'2 4.1
2017-Dec-08 05:01N 44°43' E 021°01'2 4.3
2017-Dec-08 04:30N 44°43' E 021°04'2 4.3
2017-Dec-08 04:00N 44°44' E 021°07'3 4.2
2017-Dec-08 03:20N 44°45' E 021°10'1 3.9
2017-Dec-08 02:59N 44°46' E 021°11'2 4.4
2017-Dec-08 02:28N 44°47' E 021°14'9 3.7
2017-Dec-07 23:55N 44°47' E 021°27'2 4.3
2017-Dec-07 23:30N 44°46' E 021°30'1 1.2
2017-Dec-07 22:58N 44°46' E 021°31'0 0.6
2017-Dec-07 22:30N 44°46' E 021°31'0 0.0
2017-Dec-07 22:00N 44°46' E 021°31'0 0.0
2017-Dec-07 21:29N 44°46' E 021°31'0 0.0
2017-Dec-07 20:57N 44°46' E 021°31'0 0.0
2017-Dec-07 20:29N 44°46' E 021°31'0 0.0
2017-Dec-07 19:59N 44°46' E 021°31'0 0.6
2017-Dec-07 19:27N 44°46' E 021°31'2 3.8
2017-Dec-07 18:53N 44°46' E 021°34'1 3.7
2017-Dec-07 18:29N 44°45' E 021°36'2 4.3
2017-Dec-07 17:55N 44°43' E 021°38'2 3.9
2017-Dec-07 17:30N 44°42' E 021°39'3 4.1
2017-Dec-07 16:47N 44°40' E 021°42'23 2.4
2017-Dec-07 07:22N 44°29' E 022°11'2 4.8
2017-Dec-07 07:01N 44°31' E 022°12'3 5.0
2017-Dec-07 06:27N 44°34' E 022°14'5 4.5
2017-Dec-07 05:19N 44°38' E 022°17'2 4.9
2017-Dec-07 05:00N 44°40' E 022°18'3 5.2
2017-Dec-07 04:30N 44°40' E 022°22'2 4.3
2017-Dec-07 04:00N 44°42' E 022°24'0 0.1
2017-Dec-07 03:30N 44°42' E 022°24'0 0.0
2017-Dec-07 03:00N 44°42' E 022°24'0 0.0
2017-Dec-07 02:30N 44°42' E 022°24'0 0.0
2017-Dec-07 02:00N 44°42' E 022°24'0 0.0
2017-Dec-07 01:30N 44°42' E 022°24'0 0.0
2017-Dec-07 01:00N 44°42' E 022°24'0 0.0
2017-Dec-07 00:24N 44°42' E 022°24'0 0.0
2017-Dec-07 00:00N 44°42' E 022°24'0 0.0
2017-Dec-06 23:27N 44°42' E 022°24'0 0.0
2017-Dec-06 23:00N 44°42' E 022°24'0 0.0
2017-Dec-06 22:30N 44°42' E 022°24'0 0.0
2017-Dec-06 21:57N 44°42' E 022°24'0 0.0
2017-Dec-06 21:12N 44°42' E 022°24'0 0.0
2017-Dec-06 20:57N 44°42' E 022°24'  

Dump ship's entire track history